Valier, Pennsylvania
Current Conditions -  °F | °C
As of 9:53 PM on Friday 31 Oct 2014 (Local Time) from KDUJ Reporting Station
Light Rain Light Rain  
Wind Chill: 33°   Ceiling: 2500
Heat Index: 38°   Visibility: 7mi
Dew Point: 37°   Wind: 6mph
Humidity: 97%   Direction: 60°ENE
Pressure: 29.88"   Gusts: NA
Location:  40.92°N, 79.04°W
Report Text: KDUJ 010153Z AUTO 06005KT 7SM -RA SCT017 BKN025 OVC032 03/03 A2988 RMK AO2 RAB0057 SLP128 P0002 T00330028
Loading
Personal Weather Stations






























Interactive Weather Map
Tropical Storm Tracking
New forecast layout! Learn more

10-Day Weather Forecast

Advertisements
Track Severe Weather on mobile